createdAt,value
2023-03-06T00:01:33.965Z,100043.71
2023-03-06T00:04:08.286Z,100045.63
2023-03-06T00:06:40.675Z,100048.16
2023-03-06T00:09:13.201Z,100046.73
2023-03-06T00:11:45.603Z,100046.58
2023-03-06T00:14:18.067Z,100048.71
2023-03-06T00:16:50.441Z,100047.98
2023-03-06T00:19:22.983Z,100049.40
2023-03-06T00:21:55.299Z,100050.30
2023-03-06T00:24:27.640Z,100053.19
2023-03-06T00:27:00.138Z,100053.96
2023-03-06T00:29:32.437Z,100052.10
2023-03-06T00:32:05.050Z,100053.48
2023-03-06T00:34:37.958Z,100050.19
2023-03-06T00:37:10.268Z,100055.77
2023-03-06T00:39:42.589Z,100052.47
2023-03-06T00:42:15.248Z,100055.77
2023-03-06T00:44:48.185Z,100054.96
2023-03-06T00:47:20.429Z,100055.46
2023-03-06T00:49:52.861Z,100055.44
2023-03-06T00:52:25.126Z,100051.08
2023-03-06T00:54:57.514Z,100054.90
2023-03-06T00:57:29.887Z,100050.92
2023-03-06T01:00:02.201Z,100050.22
2023-03-06T01:02:34.664Z,100051.06
2023-03-06T01:05:08.244Z,100046.57
2023-03-06T01:07:40.704Z,100050.23
2023-03-06T01:10:15.072Z,100048.13
2023-03-06T01:12:48.079Z,100043.66
2023-03-06T01:15:20.941Z,100047.02
2023-03-06T01:17:55.182Z,100044.23
2023-03-06T01:20:28.564Z,100041.67
2023-03-06T01:23:01.272Z,100039.92
2023-03-06T01:25:33.752Z,100038.57
2023-03-06T01:28:06.329Z,100041.48
2023-03-06T01:30:38.594Z,100036.84
2023-03-06T01:33:10.914Z,100039.29
2023-03-06T01:35:43.829Z,100040.52
2023-03-06T01:38:17.160Z,100038.19
2023-03-06T01:40:49.489Z,100043.79
2023-03-06T01:43:31.814Z,100043.03
2023-03-06T01:46:38.894Z,100048.82
2023-03-06T01:49:16.951Z,100047.34
2023-03-06T01:51:54.369Z,100041.64
2023-03-06T01:54:30.895Z,100043.41
2023-03-06T01:57:06.940Z,100038.27
2023-03-06T01:59:41.867Z,100033.81
2023-03-06T02:02:15.995Z,100037.41
2023-03-06T02:04:49.963Z,100035.08
2023-03-06T02:07:24.183Z,100038.36
2023-03-06T02:09:56.761Z,100039.70
2023-03-06T02:12:29.777Z,100039.71
2023-03-06T02:15:02.384Z,100037.08
2023-03-06T02:17:37.236Z,100032.74
2023-03-06T02:20:17.536Z,100033.88
2023-03-06T02:22:55.584Z,100040.02
2023-03-06T02:25:40.189Z,100041.35
2023-03-06T02:28:15.638Z,100040.67
2023-03-06T02:30:50.896Z,100034.95
2023-03-06T02:33:27.070Z,100036.83
2023-03-06T02:36:01.639Z,100037.38
2023-03-06T02:38:38.828Z,100041.85
2023-03-06T02:41:12.002Z,100051.69
2023-03-06T02:43:47.253Z,100047.27
2023-03-06T02:46:19.832Z,100045.33
2023-03-06T02:48:52.254Z,100047.81
2023-03-06T02:51:24.768Z,100050.35
2023-03-06T02:53:57.256Z,100054.20
2023-03-06T02:56:29.490Z,100051.21
2023-03-06T02:59:01.867Z,100053.08
2023-03-06T03:01:34.196Z,100057.10
2023-03-06T03:04:06.984Z,100055.99
2023-03-06T03:06:39.370Z,100053.63
2023-03-06T03:09:11.736Z,100054.44
2023-03-06T03:11:44.081Z,100061.86
2023-03-06T03:14:16.793Z,100062.17
2023-03-06T03:16:49.087Z,100064.16
2023-03-06T03:19:21.466Z,100064.55
2023-03-06T03:21:53.881Z,100064.66
2023-03-06T03:24:26.565Z,100064.35
2023-03-06T03:26:59.046Z,100062.18
2023-03-06T03:29:31.402Z,100059.67
2023-03-06T03:32:03.837Z,100059.92
2023-03-06T03:34:36.314Z,100058.98
2023-03-06T03:37:09.311Z,100075.42
2023-03-06T03:39:41.610Z,100081.38
2023-03-06T03:42:14.009Z,100079.45
2023-03-06T03:44:46.529Z,100077.51
2023-03-06T03:47:19.020Z,100080.56
2023-03-06T03:49:51.332Z,100078.80
2023-03-06T03:52:23.594Z,100080.82
2023-03-06T03:54:56.162Z,100081.80
2023-03-06T03:57:28.655Z,100085.16
2023-03-06T04:00:01.064Z,100083.75
2023-03-06T04:02:33.361Z,100080.66
2023-03-06T04:05:06.349Z,100078.86
2023-03-06T04:07:38.794Z,100081.89
2023-03-06T04:10:14.298Z,100082.09
2023-03-06T04:12:46.530Z,100083.03
2023-03-06T04:15:18.791Z,100085.71
2023-03-06T04:17:51.099Z,100086.00
2023-03-06T04:20:23.841Z,100086.44
2023-03-06T04:22:56.260Z,100086.05
2023-03-06T04:25:28.665Z,100082.74
2023-03-06T04:28:01.106Z,100083.15
2023-03-06T04:30:34.248Z,100086.15
2023-03-06T04:33:07.129Z,100082.69
2023-03-06T04:35:39.709Z,100091.02
2023-03-06T04:38:13.714Z,100093.65
2023-03-06T04:40:46.358Z,100094.98
2023-03-06T04:43:19.060Z,100093.65
2023-03-06T04:45:51.541Z,100095.21
2023-03-06T04:48:23.908Z,100101.02
2023-03-06T04:50:56.248Z,100105.19
2023-03-06T04:53:28.696Z,100106.45
2023-03-06T04:56:01.091Z,100112.59
2023-03-06T04:58:33.551Z,100115.14
2023-03-06T05:01:06.092Z,100119.00
2023-03-06T05:03:38.744Z,100122.38
2023-03-06T05:06:11.571Z,100120.80
2023-03-06T05:08:43.972Z,100125.35
2023-03-06T05:11:16.536Z,100126.08
2023-03-06T05:13:49.484Z,100134.30
2023-03-06T05:16:21.822Z,100135.42
2023-03-06T05:18:54.165Z,100136.18
2023-03-06T05:21:26.697Z,100134.44
2023-03-06T05:23:59.085Z,100131.64
2023-03-06T05:26:31.604Z,100136.00
2023-03-06T05:29:04.079Z,100132.21
2023-03-06T05:31:36.521Z,100137.23
2023-03-06T05:34:08.920Z,100144.44
2023-03-06T05:36:41.289Z,100163.66
2023-03-06T05:39:13.859Z,100174.63
2023-03-06T05:41:46.129Z,100169.65
2023-03-06T05:44:18.600Z,100164.87
2023-03-06T05:46:52.051Z,100166.95
2023-03-06T05:49:24.540Z,100174.55
2023-03-06T05:51:56.871Z,100178.31
2023-03-06T05:54:29.149Z,100178.63
2023-03-06T05:57:01.503Z,100175.14
2023-03-06T05:59:34.474Z,100183.10
2023-03-06T06:02:07.026Z,100188.47
2023-03-06T06:04:39.435Z,100191.50
2023-03-06T06:07:16.406Z,100185.64
2023-03-06T06:09:48.798Z,100196.07
2023-03-06T06:12:21.281Z,100206.22
2023-03-06T06:14:53.603Z,100212.65
2023-03-06T06:17:25.981Z,100219.27
2023-03-06T06:19:58.286Z,100225.97
2023-03-06T06:22:30.661Z,100227.33
2023-03-06T06:25:02.986Z,100228.16
2023-03-06T06:27:35.460Z,100228.48
2023-03-06T06:30:10.024Z,100225.82
2023-03-06T06:32:42.347Z,100235.46
2023-03-06T06:35:14.741Z,100235.82
2023-03-06T06:37:47.076Z,100235.08
2023-03-06T06:40:21.145Z,100232.61
2023-03-06T06:42:55.410Z,100230.60
2023-03-06T06:45:28.771Z,100233.27
2023-03-06T06:48:01.173Z,100233.52
2023-03-06T06:50:33.501Z,100236.58
2023-03-06T06:53:05.893Z,100234.56
2023-03-06T06:55:39.083Z,100232.30
2023-03-06T06:58:11.635Z,100232.41
2023-03-06T07:00:44.219Z,100240.49
2023-03-06T07:03:16.684Z,100247.57
2023-03-06T07:05:55.064Z,100251.45
2023-03-06T07:08:27.952Z,100260.90
2023-03-06T07:11:01.342Z,100264.56
2023-03-06T07:13:33.582Z,100265.50
2023-03-06T07:16:06.612Z,100266.65
2023-03-06T07:18:38.873Z,100267.45
2023-03-06T07:21:11.755Z,100266.70
2023-03-06T07:23:44.369Z,100275.29
2023-03-06T07:26:16.825Z,100279.34
2023-03-06T07:28:53.194Z,100281.11
2023-03-06T07:31:27.655Z,100285.87
2023-03-06T07:34:00.198Z,100289.52
2023-03-06T07:36:33.349Z,100291.48
2023-03-06T07:39:05.724Z,100292.03
2023-03-06T07:41:38.218Z,100294.54
2023-03-06T07:44:10.775Z,100292.34
2023-03-06T07:46:43.113Z,100297.43
2023-03-06T07:49:15.554Z,100296.74
2023-03-06T07:51:47.914Z,100300.13
2023-03-06T07:54:20.270Z,100300.76
2023-03-06T07:56:55.377Z,100297.28
2023-03-06T07:59:27.969Z,100300.14
2023-03-06T08:02:00.967Z,100305.53
2023-03-06T08:04:34.229Z,100302.17
2023-03-06T08:07:06.594Z,100304.92
2023-03-06T08:09:39.151Z,100299.65
2023-03-06T08:12:12.107Z,100306.15
2023-03-06T08:14:44.479Z,100305.41
2023-03-06T08:17:16.804Z,100310.05
2023-03-06T08:19:49.232Z,100310.66
2023-03-06T08:22:21.694Z,100314.34
2023-03-06T08:24:57.717Z,100313.74
2023-03-06T08:27:28.779Z,100322.45
2023-03-06T08:30:01.164Z,100323.56
2023-03-06T08:32:35.711Z,100337.71
2023-03-06T08:35:09.388Z,100339.17
2023-03-06T08:37:41.730Z,100344.42
2023-03-06T08:40:15.977Z,100343.14
2023-03-06T08:42:50.580Z,100343.30
2023-03-06T08:45:23.056Z,100344.58
2023-03-06T08:47:55.447Z,100341.86
2023-03-06T08:50:27.821Z,100345.98
2023-03-06T08:53:00.757Z,100346.55
2023-03-06T08:55:33.242Z,100345.97
2023-03-06T08:58:05.533Z,100347.95
2023-03-06T09:00:38.496Z,100348.90
2023-03-06T09:03:11.515Z,100349.45
2023-03-06T09:05:43.873Z,100348.47
2023-03-06T09:08:16.751Z,100347.95
2023-03-06T09:10:50.458Z,100344.98
2023-03-06T09:13:23.281Z,100349.42
2023-03-06T09:15:55.678Z,100350.46
2023-03-06T09:18:30.311Z,100351.45
2023-03-06T09:21:04.146Z,100354.22
2023-03-06T09:23:39.641Z,100355.44
2023-03-06T09:26:13.482Z,100355.85
2023-03-06T09:28:45.966Z,100359.84
2023-03-06T09:31:20.668Z,100363.30
2023-03-06T09:33:53.003Z,100360.13
2023-03-06T09:36:26.006Z,100361.14
2023-03-06T09:38:58.483Z,100363.98
2023-03-06T09:41:34.358Z,100367.02
2023-03-06T09:44:09.341Z,100369.07
2023-03-06T09:47:01.779Z,100372.11
2023-03-06T09:49:43.540Z,100370.40
2023-03-06T09:52:31.476Z,100372.67
2023-03-06T09:55:12.707Z,100377.04
2023-03-06T09:57:56.034Z,100373.09
2023-03-06T10:00:33.644Z,100382.88
2023-03-06T10:03:19.421Z,100377.26
2023-03-06T10:05:56.433Z,100378.61
2023-03-06T10:08:36.853Z,100381.25
2023-03-06T10:11:12.860Z,100380.45
2023-03-06T10:13:46.131Z,100377.02
2023-03-06T10:16:30.638Z,100380.50
2023-03-06T10:19:05.321Z,100373.89
2023-03-06T10:21:46.882Z,100373.75
2023-03-06T10:24:33.170Z,100362.37
2023-03-06T10:27:16.914Z,100366.17
2023-03-06T10:30:03.173Z,100368.86
2023-03-06T10:32:49.158Z,100365.31
2023-03-06T10:35:30.813Z,100361.25
2023-03-06T10:38:19.693Z,100357.74
2023-03-06T10:41:05.067Z,100355.97
2023-03-06T10:43:38.630Z,100346.48
2023-03-06T10:46:12.583Z,100341.84
2023-03-06T10:48:58.095Z,100336.37
2023-03-06T10:51:31.903Z,100329.23
2023-03-06T10:54:19.456Z,100320.53
2023-03-06T10:56:51.853Z,100320.14
2023-03-06T10:59:28.393Z,100321.29
2023-03-06T11:02:21.759Z,100312.31
2023-03-06T11:04:57.020Z,100312.93
2023-03-06T11:07:31.013Z,100313.59
2023-03-06T11:10:08.972Z,100312.20
2023-03-06T11:12:43.518Z,100305.84
2023-03-06T11:15:25.086Z,100307.30
2023-03-06T11:18:01.401Z,100300.23
2023-03-06T11:20:50.868Z,100302.24
2023-03-06T11:23:31.466Z,100296.75
2023-03-06T11:26:17.753Z,100296.30
2023-03-06T11:28:50.003Z,100294.46
2023-03-06T11:31:26.018Z,100289.93
2023-03-06T11:34:06.275Z,100286.61
2023-03-06T11:36:44.371Z,100281.16
2023-03-06T11:39:25.022Z,100281.38
2023-03-06T11:42:06.764Z,100276.60
2023-03-06T11:44:54.389Z,100278.08
2023-03-06T11:47:30.781Z,100277.71
2023-03-06T11:50:15.473Z,100277.51
2023-03-06T11:52:53.027Z,100275.13
2023-03-06T11:55:37.759Z,100269.54
2023-03-06T11:58:32.889Z,100269.00
2023-03-06T12:01:10.678Z,100270.32
2023-03-06T12:04:04.576Z,100270.67
2023-03-06T12:06:48.175Z,100268.61
2023-03-06T12:09:30.021Z,100262.48
2023-03-06T12:12:19.975Z,100261.00
2023-03-06T12:15:27.085Z,100264.05
2023-03-06T12:18:23.764Z,100259.30
2023-03-06T12:21:05.827Z,100255.32
2023-03-06T12:24:03.747Z,100252.92
2023-03-06T12:26:56.164Z,100257.54
2023-03-06T12:29:50.127Z,100252.15
2023-03-06T12:32:35.361Z,100250.20
2023-03-06T12:35:23.724Z,100245.85
2023-03-06T12:38:08.340Z,100248.98
2023-03-06T12:40:57.257Z,100246.39
2023-03-06T12:44:05.763Z,100246.84
2023-03-06T12:46:42.954Z,100244.61
2023-03-06T12:49:31.545Z,100244.84
2023-03-06T12:52:09.846Z,100242.12
2023-03-06T12:54:44.602Z,100243.09
2023-03-06T12:57:17.964Z,100241.60
2023-03-06T12:59:52.025Z,100239.88
2023-03-06T13:02:47.540Z,100237.09
2023-03-06T13:05:55.066Z,100232.72
2023-03-06T13:08:37.858Z,100228.73
2023-03-06T13:11:29.531Z,100228.93
2023-03-06T13:14:01.917Z,100227.06
2023-03-06T13:16:35.930Z,100225.34
2023-03-06T13:19:19.576Z,100222.67
2023-03-06T13:22:14.568Z,100224.55
2023-03-06T13:24:47.536Z,100224.54
2023-03-06T13:28:03.409Z,100220.55
2023-03-06T13:30:47.331Z,100219.40
2023-03-06T13:33:55.891Z,100223.39
2023-03-06T13:36:31.194Z,100214.98
2023-03-06T13:39:09.832Z,100209.86
2023-03-06T13:41:54.575Z,100215.48
2023-03-06T13:44:46.114Z,100209.69
2023-03-06T13:48:09.733Z,100198.97
2023-03-06T13:50:43.655Z,100203.02
2023-03-06T13:53:57.357Z,100198.86
2023-03-06T13:56:56.828Z,100194.66
2023-03-06T13:59:54.399Z,100189.94
2023-03-06T14:02:54.934Z,100193.92
2023-03-06T14:05:35.674Z,100191.13
2023-03-06T14:08:14.590Z,100190.79
2023-03-06T14:10:48.586Z,100188.69
2023-03-06T14:13:32.348Z,100188.83
2023-03-06T14:16:21.787Z,100184.04
2023-03-06T14:18:56.611Z,100183.87
2023-03-06T14:21:33.743Z,100183.02
2023-03-06T14:24:07.376Z,100184.41
2023-03-06T14:26:47.814Z,100178.00
2023-03-06T14:29:25.327Z,100174.04
2023-03-06T14:31:59.137Z,100174.75
2023-03-06T14:34:36.662Z,100172.46
2023-03-06T14:37:20.672Z,100175.12
2023-03-06T14:39:55.404Z,100175.71
2023-03-06T14:42:29.637Z,100177.80
2023-03-06T14:45:16.832Z,100176.90
2023-03-06T14:47:52.940Z,100180.13
2023-03-06T14:50:27.927Z,100179.23
2023-03-06T14:53:04.437Z,100175.96
2023-03-06T14:55:38.233Z,100172.30
2023-03-06T14:58:17.283Z,100170.94
2023-03-06T15:00:56.701Z,100166.67
2023-03-06T15:03:42.799Z,100172.94
2023-03-06T15:06:19.645Z,100173.34
2023-03-06T15:08:59.934Z,100168.34
2023-03-06T15:11:59.507Z,100166.60
2023-03-06T15:14:35.231Z,100164.98
2023-03-06T15:17:34.003Z,100167.48
2023-03-06T15:20:09.908Z,100158.13
2023-03-06T15:22:41.768Z,100160.65
2023-03-06T15:25:23.131Z,100160.42
2023-03-06T15:27:57.374Z,100162.34
2023-03-06T15:30:33.266Z,100161.55
2023-03-06T15:33:23.463Z,100165.13
2023-03-06T15:35:58.384Z,100163.71
2023-03-06T15:38:36.756Z,100162.78
2023-03-06T15:41:21.637Z,100163.17
2023-03-06T15:43:54.112Z,100162.35
2023-03-06T15:46:26.367Z,100161.02
2023-03-06T15:49:03.254Z,100151.98
2023-03-06T15:51:35.855Z,100154.45
2023-03-06T15:54:12.266Z,100155.48
2023-03-06T15:56:47.543Z,100158.65
2023-03-06T15:59:25.554Z,100162.17
2023-03-06T16:01:58.640Z,100161.02
2023-03-06T16:04:30.974Z,100161.78
2023-03-06T16:07:03.309Z,100162.55
2023-03-06T16:09:35.650Z,100164.34
2023-03-06T16:12:13.329Z,100163.58
2023-03-06T16:14:45.917Z,100162.69
2023-03-06T16:17:18.638Z,100162.10
2023-03-06T16:19:51.108Z,100168.13
2023-03-06T16:22:23.569Z,100172.79
2023-03-06T16:24:56.137Z,100166.17
2023-03-06T16:27:29.084Z,100173.73
2023-03-06T16:30:01.480Z,100170.09
2023-03-06T16:32:34.945Z,100171.33
2023-03-06T16:35:08.083Z,100173.74
2023-03-06T16:37:40.467Z,100181.76
2023-03-06T16:40:22.306Z,100178.73
2023-03-06T16:42:55.341Z,100180.66
2023-03-06T16:45:27.873Z,100179.41
2023-03-06T16:48:00.494Z,100183.33
2023-03-06T16:50:34.908Z,100187.83
2023-03-06T16:53:07.371Z,100187.96
2023-03-06T16:55:39.768Z,100189.61
2023-03-06T16:58:15.116Z,100190.64
2023-03-06T17:00:47.568Z,100192.91
2023-03-06T17:03:20.540Z,100189.78
2023-03-06T17:05:52.884Z,100186.96
2023-03-06T17:08:25.163Z,100190.52
2023-03-06T17:10:59.252Z,100184.62
2023-03-06T17:13:31.712Z,100186.14
2023-03-06T17:16:05.347Z,100183.48
2023-03-06T17:18:37.693Z,100190.21
2023-03-06T17:21:10.653Z,100193.16
2023-03-06T17:23:43.085Z,100195.38
2023-03-06T17:26:19.079Z,100197.28
2023-03-06T17:28:51.910Z,100196.41
2023-03-06T17:31:26.755Z,100200.64
2023-03-06T17:34:00.777Z,100197.80
2023-03-06T17:36:33.678Z,100201.86
2023-03-06T17:39:06.719Z,100199.77
2023-03-06T17:41:39.064Z,100201.00
2023-03-06T17:44:12.225Z,100202.46
2023-03-06T17:46:44.598Z,100199.77
2023-03-06T17:49:19.568Z,100202.80
2023-03-06T17:51:52.102Z,100204.11
2023-03-06T17:54:26.175Z,100202.40
2023-03-06T17:57:01.218Z,100201.42
2023-03-06T17:59:35.206Z,100201.93
2023-03-06T18:02:07.946Z,100202.27
2023-03-06T18:04:41.349Z,100207.29
2023-03-06T18:07:14.059Z,100207.73
2023-03-06T18:09:49.297Z,100209.45
2023-03-06T18:12:21.865Z,100212.33
2023-03-06T18:14:54.432Z,100211.92
2023-03-06T18:17:26.766Z,100211.10
2023-03-06T18:19:59.258Z,100206.77
2023-03-06T18:22:31.676Z,100202.89
2023-03-06T18:25:04.219Z,100202.55
2023-03-06T18:27:37.375Z,100202.23
2023-03-06T18:30:11.899Z,100207.53
2023-03-06T18:32:44.317Z,100206.20
2023-03-06T18:35:16.661Z,100207.64
2023-03-06T18:37:49.038Z,100206.45
2023-03-06T18:40:24.523Z,100208.72
2023-03-06T18:42:57.236Z,100208.17
2023-03-06T18:45:29.825Z,100202.52
2023-03-06T18:48:05.028Z,100196.02
2023-03-06T18:50:39.203Z,100198.73
2023-03-06T18:53:11.523Z,100200.52
2023-03-06T18:55:49.777Z,100200.86
2023-03-06T18:58:22.794Z,100203.92
2023-03-06T19:00:55.652Z,100202.61
2023-03-06T19:03:29.329Z,100198.67
2023-03-06T19:06:05.194Z,100198.44
2023-03-06T19:08:36.356Z,100196.06
2023-03-06T19:11:10.874Z,100193.43
2023-03-06T19:13:43.422Z,100196.58
2023-03-06T19:16:22.718Z,100194.95
2023-03-06T19:18:55.823Z,100191.98
2023-03-06T19:21:29.406Z,100190.01
2023-03-06T19:24:04.715Z,100189.35
2023-03-06T19:26:36.980Z,100189.83
2023-03-06T19:29:09.373Z,100191.83
2023-03-06T19:31:41.720Z,100192.08
2023-03-06T19:34:13.964Z,100195.45
2023-03-06T19:36:46.365Z,100195.92
2023-03-06T19:39:18.597Z,100188.05
2023-03-06T19:41:51.388Z,100191.55
2023-03-06T19:44:24.355Z,100189.88
2023-03-06T19:46:56.560Z,100187.84
2023-03-06T19:49:28.826Z,100186.63
2023-03-06T19:52:01.278Z,100185.64
2023-03-06T19:54:33.654Z,100183.42
2023-03-06T19:57:06.303Z,100174.84
2023-03-06T19:59:38.834Z,100177.20
2023-03-06T20:02:12.908Z,100176.97
2023-03-06T20:04:45.244Z,100178.47
2023-03-06T20:07:17.571Z,100176.44
2023-03-06T20:09:50.270Z,100180.99
2023-03-06T20:12:22.619Z,100185.84
2023-03-06T20:14:55.190Z,100187.61
2023-03-06T20:17:27.574Z,100191.15
2023-03-06T20:20:00.218Z,100185.55
2023-03-06T20:22:32.558Z,100181.96
2023-03-06T20:25:05.398Z,100175.70
2023-03-06T20:27:38.119Z,100170.58
2023-03-06T20:30:13.181Z,100170.61
2023-03-06T20:32:45.415Z,100170.28
2023-03-06T20:35:18.012Z,100177.24
2023-03-06T20:37:50.314Z,100179.14
2023-03-06T20:40:22.692Z,100176.70
2023-03-06T20:42:55.094Z,100178.91
2023-03-06T20:45:27.398Z,100180.72
2023-03-06T20:47:59.739Z,100180.17
2023-03-06T20:50:32.129Z,100181.85
2023-03-06T20:53:04.351Z,100177.21
2023-03-06T20:55:38.722Z,100172.67
2023-03-06T20:58:11.116Z,100166.23
2023-03-06T21:00:43.560Z,100167.34
2023-03-06T21:03:16.662Z,100168.91
2023-03-06T21:05:50.257Z,100169.20
2023-03-06T21:08:22.495Z,100165.82
2023-03-06T21:10:55.173Z,100169.71
2023-03-06T21:13:27.614Z,100174.98
2023-03-06T21:15:59.929Z,100175.45
2023-03-06T21:18:32.322Z,100181.79
2023-03-06T21:21:08.447Z,100183.64
2023-03-06T21:23:41.188Z,100178.09
2023-03-06T21:26:16.530Z,100175.70
2023-03-06T21:28:49.189Z,100173.98
2023-03-06T21:31:23.017Z,100171.50
2023-03-06T21:33:55.703Z,100172.06
2023-03-06T21:36:28.356Z,100171.16
2023-03-06T21:39:00.768Z,100168.40
2023-03-06T21:41:33.416Z,100160.67
2023-03-06T21:44:07.251Z,100162.95
2023-03-06T21:46:39.577Z,100162.02
2023-03-06T21:49:11.862Z,100158.16
2023-03-06T21:51:44.221Z,100155.13
2023-03-06T21:54:16.493Z,100153.45
2023-03-06T21:56:49.081Z,100153.81
2023-03-06T21:59:21.588Z,100154.15
2023-03-06T22:01:54.053Z,100148.54
2023-03-06T22:04:26.475Z,100153.51
2023-03-06T22:06:58.851Z,100155.00
2023-03-06T22:09:31.291Z,100163.09
2023-03-06T22:12:03.825Z,100164.77
2023-03-06T22:14:36.135Z,100159.83
2023-03-06T22:17:08.616Z,100153.56
2023-03-06T22:19:40.930Z,100156.27
2023-03-06T22:22:13.317Z,100152.92
2023-03-06T22:24:45.877Z,100143.88
2023-03-06T22:27:18.447Z,100139.33
2023-03-06T22:29:50.771Z,100140.76
2023-03-06T22:32:23.268Z,100145.19
2023-03-06T22:34:55.549Z,100134.41
2023-03-06T22:37:27.906Z,100131.02
2023-03-06T22:40:00.183Z,100138.64
2023-03-06T22:42:32.617Z,100139.70
2023-03-06T22:45:05.355Z,100134.81
2023-03-06T22:47:40.544Z,100135.48
2023-03-06T22:50:14.719Z,100131.34
2023-03-06T22:52:47.111Z,100123.77
2023-03-06T22:55:19.592Z,100114.97
2023-03-06T22:57:51.988Z,100109.58
2023-03-06T23:00:25.642Z,100104.95
2023-03-06T23:02:58.000Z,100097.05
2023-03-06T23:05:30.517Z,100090.59
2023-03-06T23:08:02.787Z,100087.52
2023-03-06T23:10:39.615Z,100090.76
2023-03-06T23:13:11.942Z,100091.63
2023-03-06T23:15:44.424Z,100095.94
2023-03-06T23:18:17.319Z,100096.68
2023-03-06T23:20:49.676Z,100099.08
2023-03-06T23:23:22.823Z,100097.00
2023-03-06T23:25:59.500Z,100093.89
2023-03-06T23:28:32.159Z,100094.30
2023-03-06T23:31:09.488Z,100094.44
2023-03-06T23:33:42.719Z,100097.42
2023-03-06T23:36:17.398Z,100097.94
2023-03-06T23:38:49.864Z,100094.20
2023-03-06T23:41:24.033Z,100092.05
2023-03-06T23:43:56.345Z,100077.45
2023-03-06T23:46:28.777Z,100073.09
2023-03-06T23:49:01.266Z,100068.80
2023-03-06T23:51:33.676Z,100063.31
2023-03-06T23:54:07.484Z,100060.19
2023-03-06T23:56:40.619Z,100051.95
2023-03-06T23:59:14.216Z,100050.92
